Time;durP1;ratioP1;P1;durP2;ratioP2;P2;SDS_P1;SDS_P2;PMS_P1;PMS_P2;Temp;Humidity;BMP_temperature;BMP_pressure;BME280_temperature;BME280_humidity;BME280_pressure;Samples;Min_cycle;Max_cycle;Signal;HPM_P1;HPM_P2
2023/03/23 00:00:24;;;;;;;7.50;5.13;;;;;;;8.07;100.00;95354.00;1020038;28;20161;-74
2023/03/23 00:00:55;;;;;;;9.32;5.28;;;;;;;8.04;100.00;95350.06;1023370;28;20279;-73
2023/03/23 00:01:29;;;;;;;6.88;4.60;;;;;;;8.03;100.00;95352.94;1023703;28;20532;-73
2023/03/23 00:02:00;;;;;;;11.95;4.97;;;;;;;8.11;100.00;95352.44;1020192;29;20026;-76
2023/03/23 00:02:35;;;;;;;7.75;4.22;;;;;;;8.13;100.00;95352.22;1023160;29;20306;-74
2023/03/23 00:03:05;;;;;;;7.88;5.07;;;;;;;8.07;100.00;95343.56;1012787;29;20115;-73
2023/03/23 00:03:36;;;;;;;7.18;4.30;;;;;;;8.19;100.00;95351.97;1015599;29;20260;-75
2023/03/23 00:04:07;;;;;;;7.15;4.80;;;;;;;8.24;100.00;95348.56;1018150;29;20023;-75
2023/03/23 00:04:37;;;;;;;10.40;4.80;;;;;;;8.20;100.00;95343.06;1019479;29;20274;-74
2023/03/23 00:05:08;;;;;;;7.32;4.70;;;;;;;8.29;100.00;95353.06;1015597;29;20020;-74
2023/03/23 00:05:40;;;;;;;6.78;4.47;;;;;;;8.26;100.00;95344.66;1018857;29;20134;-73
2023/03/23 00:06:16;;;;;;;7.05;4.45;;;;;;;8.27;100.00;95348.06;1020586;28;20031;-73
2023/03/23 00:06:47;;;;;;;6.85;4.50;;;;;;;8.31;100.00;95348.34;1024379;28;20285;-73
2023/03/23 00:07:21;;;;;;;7.57;4.88;;;;;;;8.29;100.00;95339.97;1023655;28;20581;-74
2023/03/23 00:07:55;;;;;;;8.75;4.82;;;;;;;8.30;100.00;95352.00;1019272;29;20035;-74
2023/03/23 00:08:26;;;;;;;10.23;5.05;;;;;;;8.26;100.00;95338.66;1021294;28;20330;-73
2023/03/23 00:08:59;;;;;;;7.78;4.78;;;;;;;8.31;100.00;95343.09;1016659;29;20702;-74
2023/03/23 00:09:29;;;;;;;7.18;4.78;;;;;;;8.22;100.00;95330.56;1020161;29;20811;-74
2023/03/23 00:10:02;;;;;;;9.02;5.03;;;;;;;8.25;100.00;95345.72;1019353;29;20709;-74
2023/03/23 00:10:35;;;;;;;7.85;5.03;;;;;;;8.31;100.00;95349.13;1019324;29;20055;-73
2023/03/23 00:11:05;;;;;;;7.68;4.75;;;;;;;8.29;100.00;95347.81;1011790;29;20744;-74
2023/03/23 00:11:35;;;;;;;9.90;4.35;;;;;;;8.25;100.00;95345.72;1020261;29;20263;-74
2023/03/23 00:12:07;;;;;;;8.70;4.28;;;;;;;8.26;100.00;95346.50;1023439;29;20421;-72
2023/03/23 00:12:41;;;;;;;8.75;4.88;;;;;;;8.26;100.00;95351.72;1020280;29;20016;-73
2023/03/23 00:13:12;;;;;;;7.75;5.05;;;;;;;8.29;100.00;95347.81;1019291;29;20307;-73
2023/03/23 00:13:43;;;;;;;8.18;4.72;;;;;;;8.26;100.00;95352.50;1016065;29;20268;-74
2023/03/23 00:14:14;;;;;;;7.50;4.65;;;;;;;8.27;100.00;95354.06;1020562;29;20247;-73
2023/03/23 00:14:44;;;;;;;7.32;4.90;;;;;;;8.28;100.00;95349.63;1025320;28;20027;-74
2023/03/23 00:15:16;;;;;;;7.68;4.55;;;;;;;8.31;100.00;95351.72;1023402;29;20019;-75
2023/03/23 00:15:48;;;;;;;7.63;4.43;;;;;;;8.30;100.00;95347.56;1018346;29;20445;-74
2023/03/23 00:16:20;;;;;;;6.47;4.85;;;;;;;8.32;100.00;95349.94;1023208;29;20270;-76
2023/03/23 00:16:50;;;;;;;7.18;4.78;;;;;;;8.31;100.00;95348.34;1027492;28;20817;-76
2023/03/23 00:17:21;;;;;;;8.50;4.95;;;;;;;8.26;100.00;95336.81;1019376;29;20663;-73
2023/03/23 00:17:51;;;;;;;8.20;4.53;;;;;;;8.34;100.00;95347.81;1023252;28;20029;-74
2023/03/23 00:18:22;;;;;;;8.68;4.80;;;;;;;8.28;100.00;95333.94;1019737;29;20564;-72
2023/03/23 00:18:52;;;;;;;5.82;4.25;;;;;;;8.17;100.00;95327.13;1023291;28;20121;-73
2023/03/23 00:19:22;;;;;;;8.10;4.57;;;;;;;8.24;100.00;95333.69;1023312;29;20421;-74
2023/03/23 00:19:53;;;;;;;7.65;4.65;;;;;;;8.33;100.00;95343.66;1019298;29;20100;-73
2023/03/23 00:20:24;;;;;;;10.48;4.63;;;;;;;8.32;100.00;95344.69;1015660;29;20040;-73
2023/03/23 00:20:55;;;;;;;8.57;4.72;;;;;;;8.28;100.00;95339.16;1019316;29;20393;-72
2023/03/23 00:21:35;;;;;;;7.22;4.50;;;;;;;8.27;100.00;95341.00;1024905;28;20067;-75
2023/03/23 00:22:06;;;;;;;9.75;4.53;;;;;;;8.09;100.00;95315.34;1023398;29;20266;-74
2023/03/23 00:22:37;;;;;;;8.02;4.40;;;;;;;8.19;100.00;95330.28;1018232;29;20039;-74
2023/03/23 00:23:07;;;;;;;6.30;4.20;;;;;;;8.24;100.00;95332.91;1016729;29;20028;-73
2023/03/23 00:23:39;;;;;;;8.15;5.25;;;;;;;8.18;100.00;95321.66;1019678;29;20024;-74
2023/03/23 00:24:15;;;;;;;7.78;4.53;;;;;;;8.25;100.00;95335.28;1019382;29;20015;-72
2023/03/23 00:24:46;;;;;;;10.05;4.93;;;;;;;8.27;100.00;95327.16;1012233;29;20935;-73
2023/03/23 00:25:17;;;;;;;8.57;4.72;;;;;;;8.32;100.00;95339.47;1023282;29;20283;-76
2023/03/23 00:25:58;;;;;;;8.27;4.80;;;;;;;8.20;100.00;95327.41;1027645;28;20094;-73
2023/03/23 00:26:29;;;;;;;8.30;4.15;;;;;;;8.27;100.00;95335.78;1025255;28;20759;-72
2023/03/23 00:27:00;;;;;;;8.10;4.45;;;;;;;8.25;100.00;95335.28;1022335;28;20579;-73
2023/03/23 00:27:30;;;;;;;6.55;4.20;;;;;;;8.23;100.00;95332.13;1023377;29;20305;-73
2023/03/23 00:28:02;;;;;;;7.93;4.57;;;;;;;8.26;100.00;95336.81;1030063;28;20069;-74
2023/03/23 00:28:33;;;;;;;7.05;4.55;;;;;;;8.34;100.00;95342.59;1031395;28;20045;-75
2023/03/23 00:29:03;;;;;;;8.60;4.78;;;;;;;8.27;100.00;95338.38;1027344;28;20267;-74
2023/03/23 00:29:34;;;;;;;9.32;4.70;;;;;;;8.34;100.00;95343.38;1019625;29;20016;-74
2023/03/23 00:30:05;;;;;;;8.43;4.65;;;;;;;8.31;100.00;95343.09;1027209;28;20037;-73
2023/03/23 00:30:36;;;;;;;9.70;4.55;;;;;;;8.34;100.00;95347.81;1027302;28;20029;-74
2023/03/23 00:31:07;;;;;;;6.65;4.40;;;;;;;8.33;100.00;95347.03;1023368;29;20339;-73
2023/03/23 00:31:38;;;;;;;7.93;4.82;;;;;;;8.29;100.00;95335.53;1023217;29;20608;-74
2023/03/23 00:32:13;;;;;;;8.98;4.85;;;;;;;8.15;100.00;95316.94;1023620;29;20267;-73
2023/03/23 00:32:43;;;;;;;7.63;4.35;;;;;;;8.35;100.00;95344.16;1025772;28;20044;-74
2023/03/23 00:33:16;;;;;;;10.43;4.10;;;;;;;8.31;100.00;95338.66;1023488;28;20274;-74
2023/03/23 00:33:47;;;;;;;6.85;4.53;;;;;;;8.35;100.00;95338.94;1023150;28;20041;-73
2023/03/23 00:34:19;;;;;;;12.70;5.15;;;;;;;8.31;100.00;95330.81;1027266;28;20269;-74
2023/03/23 00:34:50;;;;;;;7.43;4.30;;;;;;;8.39;100.00;95346.03;1024356;28;20127;-73
2023/03/23 00:35:20;;;;;;;11.18;4.82;;;;;;;8.38;100.00;95338.44;1026831;28;20471;-73
2023/03/23 00:35:52;;;;;;;6.85;4.03;;;;;;;8.40;100.00;95341.59;1028647;28;20407;-75
2023/03/23 00:36:23;;;;;;;6.13;4.40;;;;;;;8.42;100.00;95345.53;1027329;28;20015;-74
2023/03/23 00:36:56;;;;;;;7.68;4.18;;;;;;;8.39;100.00;95342.66;1023201;29;20675;-73
2023/03/23 00:37:27;;;;;;;7.47;4.95;;;;;;;8.39;100.00;95345.28;1020102;28;20024;-73
2023/03/23 00:37:58;;;;;;;9.15;4.25;;;;;;;8.38;100.00;95344.47;1023383;29;20592;-73
2023/03/23 00:38:29;;;;;;;6.63;4.40;;;;;;;8.39;100.00;95340.03;1031327;28;20026;-73
2023/03/23 00:39:01;;;;;;;9.40;4.75;;;;;;;8.39;100.00;95348.66;1027598;28;20262;-75
2023/03/23 00:39:31;;;;;;;7.45;4.35;;;;;;;8.40;100.00;95349.44;1027716;28;20031;-74
2023/03/23 00:40:06;;;;;;;8.90;4.60;;;;;;;8.35;100.00;95329.28;1027425;28;20277;-73
2023/03/23 00:40:37;;;;;;;7.35;4.00;;;;;;;8.40;100.00;95339.00;1023127;29;20023;-73
2023/03/23 00:41:07;;;;;;;7.15;4.32;;;;;;;8.34;100.00;95324.28;1023175;28;20267;-73
2023/03/23 00:41:38;;;;;;;7.18;4.65;;;;;;;8.39;100.00;95334.81;1022263;29;20055;-74
2023/03/23 00:42:09;;;;;;;7.65;4.45;;;;;;;8.36;100.00;95335.28;1022864;29;20041;-72
2023/03/23 00:42:39;;;;;;;7.82;4.05;;;;;;;8.35;100.00;95333.69;1022506;29;20548;-73
2023/03/23 00:43:13;;;;;;;6.35;4.07;;;;;;;8.29;100.00;95330.31;1019213;28;20039;-73
2023/03/23 00:43:43;;;;;;;5.72;3.97;;;;;;;8.27;100.00;95324.53;1026955;28;20039;-73
2023/03/23 00:44:17;;;;;;;7.78;5.40;;;;;;;8.30;100.00;95339.72;1026904;28;20258;-73
2023/03/23 00:44:48;;;;;;;7.47;4.20;;;;;;;8.30;100.00;95336.31;1018727;29;20441;-74
2023/03/23 00:45:18;;;;;;;10.15;4.53;;;;;;;8.22;100.00;95329.78;1026817;28;20262;-72
2023/03/23 00:45:52;;;;;;;5.88;4.20;;;;;;;8.29;100.00;95337.38;1025530;28;20262;-73
2023/03/23 00:46:24;;;;;;;8.20;4.55;;;;;;;8.30;100.00;95334.47;1023399;28;20019;-73
2023/03/23 00:46:56;;;;;;;7.78;4.47;;;;;;;8.25;100.00;95340.50;1023669;28;20274;-73
2023/03/23 00:47:27;;;;;;;7.22;4.32;;;;;;;8.22;100.00;95329.78;1024345;28;20263;-73
2023/03/23 00:48:01;;;;;;;6.15;4.18;;;;;;;8.21;100.00;95338.63;1022382;29;20739;-73
2023/03/23 00:48:32;;;;;;;6.75;4.43;;;;;;;8.17;100.00;95332.34;1019910;29;20020;-73
2023/03/23 00:49:03;;;;;;;7.20;4.50;;;;;;;8.16;100.00;95328.97;1019431;29;21169;-74
2023/03/23 00:49:34;;;;;;;9.85;5.63;;;;;;;8.14;100.00;95333.66;1024234;28;20031;-74
2023/03/23 00:50:06;;;;;;;6.38;4.40;;;;;;;8.11;100.00;95331.53;1031438;28;20026;-74
2023/03/23 00:50:36;;;;;;;9.05;4.43;;;;;;;8.08;100.00;95329.47;1027124;28;20266;-73
2023/03/23 00:51:11;;;;;;;6.38;4.32;;;;;;;8.10;100.00;95337.03;1018797;29;20334;-73
2023/03/23 00:51:42;;;;;;;8.27;4.93;;;;;;;8.00;100.00;95322.09;1021115;29;20316;-76
2023/03/23 00:52:12;;;;;;;6.50;4.35;;;;;;;8.04;100.00;95328.38;1025254;28;20274;-74
2023/03/23 00:52:42;;;;;;;8.63;4.53;;;;;;;8.03;100.00;95332.06;1028387;28;20030;-75
2023/03/23 00:53:13;;;;;;;7.15;4.13;;;;;;;8.01;100.00;95339.34;1031478;28;20038;-75
2023/03/23 00:53:44;;;;;;;8.98;4.47;;;;;;;8.01;100.00;95331.50;1027793;29;20088;-75
2023/03/23 00:54:15;;;;;;;7.45;4.45;;;;;;;8.00;100.00;95333.34;1027605;28;20035;-77
2023/03/23 00:54:45;;;;;;;7.28;4.63;;;;;;;7.84;100.00;95307.41;1031959;28;20027;-76
2023/03/23 00:55:16;;;;;;;8.18;4.35;;;;;;;7.95;100.00;95330.72;1031499;28;20029;-75
2023/03/23 00:55:47;;;;;;;5.70;4.20;;;;;;;7.90;100.00;95327.28;1034960;28;20030;-77
2023/03/23 00:56:17;;;;;;;8.18;4.35;;;;;;;7.97;100.00;95340.91;1035989;28;20029;-73
2023/03/23 00:56:48;;;;;;;6.75;4.57;;;;;;;7.93;100.00;95332.00;1037547;28;20256;-75
2023/03/23 00:57:19;;;;;;;7.40;4.75;;;;;;;8.00;100.00;95335.94;1027155;28;20073;-73
2023/03/23 00:57:51;;;;;;;10.18;5.03;;;;;;;7.99;100.00;95331.00;1027583;28;20019;-74
2023/03/23 00:58:21;;;;;;;6.97;3.75;;;;;;;7.97;100.00;95343.53;1030794;28;20010;-73
2023/03/23 00:58:51;;;;;;;6.20;4.20;;;;;;;7.96;100.00;95341.97;1027087;28;20258;-73
2023/03/23 00:59:22;;;;;;;7.68;4.53;;;;;;;7.93;100.00;95340.63;1023233;28;20038;-73
2023/03/23 00:59:53;;;;;;;8.48;4.65;;;;;;;7.91;100.00;95332.25;1022995;28;20539;-74
2023/03/23 01:00:23;;;;;;;9.55;4.22;;;;;;;7.89;100.00;95330.97;1022897;28;20038;-73
2023/03/23 01:00:54;;;;;;;6.30;4.30;;;;;;;7.86;100.00;95337.47;1022920;29;20556;-73
2023/03/23 01:01:24;;;;;;;7.40;3.75;;;;;;;7.83;100.00;95331.97;1018966;29;20513;-73
2023/03/23 01:01:55;;;;;;;7.13;4.28;;;;;;;7.83;100.00;95329.38;1019072;28;20028;-73
2023/03/23 01:02:25;;;;;;;7.53;4.30;;;;;;;7.75;100.00;95325.41;1022689;28;20671;-74
2023/03/23 01:02:56;;;;;;;7.50;4.65;;;;;;;7.75;100.00;95328.03;1030513;28;20022;-74
2023/03/23 01:03:27;;;;;;;7.32;4.40;;;;;;;7.80;100.00;95331.44;1022901;29;20059;-73
2023/03/23 01:04:00;;;;;;;7.53;4.88;;;;;;;7.80;100.00;95328.81;1026651;28;20023;-74
2023/03/23 01:04:31;;;;;;;9.18;5.03;;;;;;;7.77;100.00;95324.09;1026608;28;20667;-74
2023/03/23 01:05:03;;;;;;;11.60;4.32;;;;;;;7.84;100.00;95343.97;1027145;28;20266;-73
2023/03/23 01:05:36;;;;;;;6.85;4.32;;;;;;;7.79;100.00;95331.69;1030648;28;20022;-73
2023/03/23 01:06:08;;;;;;;9.30;4.78;;;;;;;7.75;100.00;95325.41;1026436;28;20262;-73
2023/03/23 01:06:40;;;;;;;7.00;4.57;;;;;;;7.82;100.00;95336.41;1022349;29;20263;-73
2023/03/23 01:07:12;;;;;;;8.57;4.75;;;;;;;7.80;100.00;95331.44;1018666;29;20649;-73
2023/03/23 01:07:44;;;;;;;6.50;4.10;;;;;;;7.86;100.00;95334.06;1022583;29;20519;-73
2023/03/23 01:08:14;;;;;;;7.13;3.90;;;;;;;7.86;100.00;95336.69;1022611;29;20267;-74
2023/03/23 01:08:45;;;;;;;9.50;4.90;;;;;;;7.86;100.00;95339.31;1026755;28;20258;-73
2023/03/23 01:09:16;;;;;;;8.13;4.97;;;;;;;7.64;100.00;95308.91;1027498;28;20078;-74
2023/03/23 01:09:47;;;;;;;7.20;4.80;;;;;;;7.85;100.00;95329.91;1026579;28;20558;-73
2023/03/23 01:10:18;;;;;;;7.22;4.47;;;;;;;7.85;100.00;95335.13;1030787;28;20266;-74
2023/03/23 01:10:49;;;;;;;7.43;4.57;;;;;;;7.86;100.00;95334.06;1030371;28;20357;-74
2023/03/23 01:11:20;;;;;;;6.32;4.22;;;;;;;7.84;100.00;95333.53;1026575;28;20474;-73
2023/03/23 01:11:50;;;;;;;7.25;4.88;;;;;;;7.79;100.00;95324.66;1026678;28;20058;-74
2023/03/23 01:12:23;;;;;;;5.95;4.07;;;;;;;7.84;100.00;95329.09;1018715;29;20012;-73
2023/03/23 01:12:54;;;;;;;10.20;4.63;;;;;;;7.82;100.00;95325.97;1022939;28;20031;-74
2023/03/23 01:13:24;;;;;;;7.25;4.40;;;;;;;7.66;100.00;95311.28;1027004;28;20361;-74
2023/03/23 01:13:55;;;;;;;7.68;4.78;;;;;;;7.78;100.00;95325.69;1022971;28;20485;-73
2023/03/23 01:14:26;;;;;;;7.03;4.57;;;;;;;7.78;100.00;95330.91;1022905;28;20106;-73
2023/03/23 01:14:56;;;;;;;6.80;4.43;;;;;;;7.76;100.00;95329.59;1025923;28;20031;-75
2023/03/23 01:15:28;;;;;;;7.53;4.70;;;;;;;7.82;100.00;95327.78;1018903;29;20020;-73
2023/03/23 01:15:58;;;;;;;6.63;4.35;;;;;;;7.74;100.00;95319.38;1021300;29;20019;-73
2023/03/23 01:16:29;;;;;;;8.65;4.40;;;;;;;7.78;100.00;95325.69;1018395;29;20384;-75
2023/03/23 01:16:59;;;;;;;6.38;4.18;;;;;;;7.72;100.00;95316.25;1018744;29;20023;-73
2023/03/23 01:17:30;;;;;;;8.23;4.40;;;;;;;7.74;100.00;95318.59;1022502;29;20476;-73
2023/03/23 01:18:00;;;;;;;8.15;4.82;;;;;;;7.77;100.00;95324.09;1025330;28;20060;-73
2023/03/23 01:18:31;;;;;;;7.72;4.18;;;;;;;7.77;100.00;95318.88;1018891;29;20036;-73
2023/03/23 01:19:01;;;;;;;8.00;4.43;;;;;;;7.74;100.00;95314.16;1018781;29;20027;-73
2023/03/23 01:19:31;;;;;;;7.20;4.55;;;;;;;7.80;100.00;95323.59;1014967;29;20020;-75
2023/03/23 01:20:06;;;;;;;9.60;4.55;;;;;;;7.81;100.00;95319.16;1017620;29;20509;-73
2023/03/23 01:20:36;;;;;;;7.20;4.30;;;;;;;7.72;100.00;95311.03;1018587;29;20050;-73
2023/03/23 01:21:11;;;;;;;7.25;4.63;;;;;;;7.72;100.00;95308.44;1022723;29;20784;-72
2023/03/23 01:21:41;;;;;;;6.50;4.03;;;;;;;7.78;100.00;95324.91;1022483;28;20081;-74
2023/03/23 01:22:12;;;;;;;7.32;4.70;;;;;;;7.70;100.00;95307.09;1014702;29;20271;-73
2023/03/23 01:22:42;;;;;;;8.05;4.43;;;;;;;7.73;100.00;95317.81;1018925;29;20024;-74
2023/03/23 01:23:13;;;;;;;8.32;4.53;;;;;;;7.72;100.00;95324.09;1018711;28;20023;-75
2023/03/23 01:23:44;;;;;;;7.15;4.30;;;;;;;7.68;100.00;95309.97;1026739;28;20026;-73
2023/03/23 01:24:14;;;;;;;7.97;4.68;;;;;;;7.72;100.00;95315.47;1018573;29;20023;-73
2023/03/23 01:24:45;;;;;;;6.55;4.28;;;;;;;7.71;100.00;95312.09;1018851;29;20324;-74
2023/03/23 01:25:16;;;;;;;6.90;4.03;;;;;;;7.63;100.00;95302.09;1022976;29;20124;-73
2023/03/23 01:25:46;;;;;;;7.20;4.60;;;;;;;7.66;100.00;95311.28;1029926;28;20708;-74
2023/03/23 01:26:19;;;;;;;8.05;3.92;;;;;;;7.60;100.00;95301.84;1014701;29;20029;-74
2023/03/23 01:26:49;;;;;;;7.10;4.60;;;;;;;7.65;100.00;95315.72;1018667;29;20012;-72
2023/03/23 01:27:20;;;;;;;6.68;4.25;;;;;;;7.64;100.00;95313.34;1022276;29;20259;-73
2023/03/23 01:27:50;;;;;;;9.13;4.95;;;;;;;7.54;100.00;95303.63;1018091;29;20031;-74
2023/03/23 01:28:21;;;;;;;7.65;4.72;;;;;;;7.55;100.00;95300.00;1017845;29;20027;-74
2023/03/23 01:28:51;;;;;;;7.18;4.82;;;;;;;7.60;100.00;95305.22;1020724;29;20337;-77
2023/03/23 01:29:22;;;;;;;9.48;4.78;;;;;;;7.59;100.00;95308.88;1022933;29;20047;-73
2023/03/23 01:29:52;;;;;;;11.40;5.15;;;;;;;7.58;100.00;95309.94;1018555;29;20750;-72
2023/03/23 01:30:23;;;;;;;11.38;4.55;;;;;;;7.51;100.00;95299.72;1021631;29;20023;-73
2023/03/23 01:30:58;;;;;;;6.53;4.22;;;;;;;7.60;100.00;95307.84;1022873;28;20035;-74
2023/03/23 01:31:29;;;;;;;7.97;4.78;;;;;;;7.62;100.00;95305.78;1018643;29;20079;-72
2023/03/23 01:31:59;;;;;;;6.47;4.18;;;;;;;7.55;100.00;95294.78;1018941;29;20354;-74
2023/03/23 01:32:30;;;;;;;6.72;4.55;;;;;;;7.60;100.00;95300.00;1026435;28;20014;-73
2023/03/23 01:33:00;;;;;;;7.18;4.47;;;;;;;7.56;100.00;95285.91;1026356;28;20027;-73
2023/03/23 01:33:31;;;;;;;6.60;4.35;;;;;;;7.57;100.00;95297.91;1024560;28;20050;-74
2023/03/23 01:34:02;;;;;;;6.15;4.10;;;;;;;7.60;100.00;95291.38;1022364;28;20023;-73
2023/03/23 01:34:32;;;;;;;6.60;4.63;;;;;;;7.65;100.00;95294.03;1024259;28;20069;-75
2023/03/23 01:35:03;;;;;;;6.55;4.00;;;;;;;7.57;100.00;95287.44;1022472;29;20090;-72
2023/03/23 01:35:37;;;;;;;11.73;4.65;;;;;;;7.59;100.00;95285.38;1021701;29;20038;-75
2023/03/23 01:36:15;;;;;;;7.15;4.70;;;;;;;7.66;100.00;95296.38;1014789;29;20020;-74
2023/03/23 01:36:46;;;;;;;7.03;4.38;;;;;;;7.64;100.00;95295.84;1018430;29;20264;-74
2023/03/23 01:37:16;;;;;;;7.35;4.40;;;;;;;7.55;100.00;95274.66;1024285;28;20282;-74
2023/03/23 01:37:47;;;;;;;7.97;4.72;;;;;;;7.57;100.00;95277.78;1021400;28;20042;-73
2023/03/23 01:38:17;;;;;;;6.53;4.72;;;;;;;7.65;100.00;95300.03;1022727;28;20022;-74
2023/03/23 01:38:48;;;;;;;8.23;4.35;;;;;;;7.63;100.00;95294.28;1026604;28;20480;-74
2023/03/23 01:39:20;;;;;;;7.13;4.50;;;;;;;7.62;100.00;95289.31;1026658;28;20137;-73
2023/03/23 01:39:50;;;;;;;8.43;4.40;;;;;;;7.59;100.00;95282.78;1026436;28;20787;-73
2023/03/23 01:40:20;;;;;;;6.20;3.90;;;;;;;7.64;100.00;95290.63;1023740;28;20329;-73
2023/03/23 01:40:51;;;;;;;7.82;4.57;;;;;;;7.60;100.00;95284.34;1021425;29;20074;-73
2023/03/23 01:41:21;;;;;;;6.10;4.32;;;;;;;7.63;100.00;95285.66;1018851;29;20421;-75
2023/03/23 01:41:52;;;;;;;6.28;4.32;;;;;;;7.68;100.00;95290.88;1018658;29;20107;-72
2023/03/23 01:42:30;;;;;;;6.68;4.28;;;;;;;7.59;100.00;95280.16;1018186;29;20109;-72
2023/03/23 01:43:00;;;;;;;8.10;3.95;;;;;;;7.56;100.00;95278.06;1022929;29;20374;-73
2023/03/23 01:43:31;;;;;;;7.90;5.43;;;;;;;7.61;100.00;95285.91;1026574;28;20273;-74
2023/03/23 01:44:16;;;;;;;6.78;4.10;;;;;;;7.64;100.00;95301.06;1027436;28;20018;-73
2023/03/23 01:44:47;;;;;;;9.25;4.38;;;;;;;7.63;100.00;95296.09;1030631;28;20089;-73
2023/03/23 01:45:20;;;;;;;6.60;4.47;;;;;;;7.63;100.00;95293.50;1026623;28;20849;-76
2023/03/23 01:45:51;;;;;;;8.60;4.95;;;;;;;7.58;100.00;95283.81;1022962;28;20023;-73
2023/03/23 01:46:22;;;;;;;5.90;4.10;;;;;;;7.64;100.00;95292.44;1014464;29;20744;-74
2023/03/23 01:46:54;;;;;;;9.15;4.45;;;;;;;7.63;100.00;95294.28;1014964;29;20036;-73
2023/03/23 01:47:26;;;;;;;7.20;4.13;;;;;;;7.58;100.00;95283.81;1018704;29;20023;-72
2023/03/23 01:48:03;;;;;;;6.47;4.20;;;;;;;7.65;100.00;95292.22;1020124;28;20278;-72
2023/03/23 01:48:35;;;;;;;5.63;3.58;;;;;;;7.61;100.00;95282.50;1018761;29;20275;-73
2023/03/23 01:49:16;;;;;;;6.82;4.28;;;;;;;7.59;100.00;95282.00;1022382;29;20251;-74
2023/03/23 01:49:47;;;;;;;6.60;4.18;;;;;;;7.65;100.00;95294.03;1022633;29;20260;-73
2023/03/23 01:50:20;;;;;;;9.00;4.90;;;;;;;7.60;100.00;95292.16;1022387;29;20278;-73
2023/03/23 01:51:01;;;;;;;7.05;4.57;;;;;;;7.64;100.00;95295.84;1020232;29;20603;-72
2023/03/23 01:51:32;;;;;;;6.20;4.32;;;;;;;7.61;100.00;95287.72;1022297;28;20272;-73
2023/03/23 01:52:16;;;;;;;6.82;4.43;;;;;;;7.65;100.00;95291.44;1014502;29;20276;-74
2023/03/23 01:52:47;;;;;;;5.30;4.13;;;;;;;7.63;100.00;95289.06;1013492;29;20265;-73
2023/03/23 01:53:18;;;;;;;8.75;4.47;;;;;;;7.60;100.00;95281.72;1018420;29;20263;-73
2023/03/23 01:53:51;;;;;;;5.82;3.70;;;;;;;7.62;100.00;95284.88;1016961;29;20107;-74
2023/03/23 01:54:22;;;;;;;6.60;4.38;;;;;;;7.65;100.00;95286.97;1022203;29;20086;-73
2023/03/23 01:54:53;;;;;;;6.95;4.38;;;;;;;7.59;100.00;95279.38;1022879;28;20262;-74
2023/03/23 01:55:23;;;;;;;8.13;4.35;;;;;;;7.60;100.00;95279.13;1019338;29;20019;-76
2023/03/23 01:55:54;;;;;;;7.55;4.45;;;;;;;7.61;100.00;95282.50;1017806;29;20016;-75
2023/03/23 01:56:26;;;;;;;7.28;4.18;;;;;;;7.61;100.00;95272.06;1018787;29;20075;-74
2023/03/23 01:56:59;;;;;;;6.38;3.95;;;;;;;7.68;100.00;95283.88;1014519;29;20056;-73
2023/03/23 01:57:31;;;;;;;6.38;3.90;;;;;;;7.65;100.00;95284.38;1018351;29;20350;-74
2023/03/23 01:58:01;;;;;;;8.50;4.65;;;;;;;7.61;100.00;95280.69;1018699;29;20255;-73
2023/03/23 01:58:33;;;;;;;10.20;4.70;;;;;;;7.70;100.00;95287.00;1019146;29;20255;-74
2023/03/23 01:59:04;;;;;;;7.50;4.32;;;;;;;7.70;100.00;95287.00;1019149;29;20608;-74
2023/03/23 01:59:34;;;;;;;8.10;4.63;;;;;;;7.71;100.00;95288.59;1015557;29;20287;-73
2023/03/23 02:00:15;;;;;;;6.30;4.60;;;;;;;7.72;100.00;95290.16;1019224;29;20489;-74
2023/03/23 02:00:47;;;;;;;7.60;3.78;;;;;;;7.72;100.00;95294.59;1018742;29;20039;-73
2023/03/23 02:01:18;;;;;;;4.90;3.42;;;;;;;7.66;100.00;95282.53;1018322;29;20030;-74
2023/03/23 02:01:48;;;;;;;6.15;4.10;;;;;;;7.71;100.00;95283.34;1018719;29;20274;-75
2023/03/23 02:02:20;;;;;;;6.63;3.92;;;;;;;7.70;100.00;95281.78;1022667;29;20023;-72
2023/03/23 02:02:51;;;;;;;6.78;4.30;;;;;;;7.73;100.00;95283.09;1022316;29;20061;-73
2023/03/23 02:03:23;;;;;;;6.20;4.30;;;;;;;7.73;100.00;95289.09;1022708;29;21192;-73
2023/03/23 02:03:54;;;;;;;5.57;4.05;;;;;;;7.75;100.00;95289.63;1022330;29;20110;-74
2023/03/23 02:04:24;;;;;;;5.40;3.90;;;;;;;7.75;100.00;95288.84;1026315;28;20262;-73
2023/03/23 02:04:57;;;;;;;7.15;4.28;;;;;;;7.69;100.00;95288.03;1022654;29;20270;-74
2023/03/23 02:05:34;;;;;;;6.70;3.88;;;;;;;7.77;100.00;95297.97;1018517;29;20401;-73
2023/03/23 02:06:04;;;;;;;6.55;4.22;;;;;;;7.82;100.00;95293.84;1018284;29;20871;-75
2023/03/23 02:06:35;;;;;;;5.88;4.05;;;;;;;7.80;100.00;95291.47;1018327;29;20315;-74
2023/03/23 02:07:05;;;;;;;5.75;3.85;;;;;;;7.82;100.00;95294.63;1022243;29;20024;-74
2023/03/23 02:07:36;;;;;;;7.15;4.20;;;;;;;7.74;100.00;95280.22;1022687;29;20030;-73
2023/03/23 02:08:08;;;;;;;6.10;4.07;;;;;;;7.81;100.00;95295.66;1018301;29;20012;-73
2023/03/23 02:08:40;;;;;;;5.68;3.75;;;;;;;7.79;100.00;95280.25;1018803;29;20524;-76
2023/03/23 02:09:13;;;;;;;6.78;4.22;;;;;;;7.87;100.00;95293.84;1022195;29;20795;-73
2023/03/23 02:09:43;;;;;;;9.52;4.03;;;;;;;7.84;100.00;95278.69;1018341;29;20295;-72
2023/03/23 02:10:14;;;;;;;6.53;4.03;;;;;;;7.90;100.00;95291.50;1022723;29;20997;-74
2023/03/23 02:10:44;;;;;;;5.93;4.07;;;;;;;7.92;100.00;95289.44;1026418;28;20332;-74
2023/03/23 02:11:16;;;;;;;4.97;3.63;;;;;;;7.91;100.00;95284.44;1031277;28;20014;-74
2023/03/23 02:11:46;;;;;;;6.25;3.95;;;;;;;7.92;100.00;95284.22;1014774;29;20446;-74
2023/03/23 02:12:17;;;;;;;5.57;3.92;;;;;;;7.91;100.00;95274.00;1022385;29;20274;-74
2023/03/23 02:12:47;;;;;;;5.88;4.03;;;;;;;7.90;100.00;95281.06;1018950;28;20726;-73
2023/03/23 02:13:18;;;;;;;6.60;4.13;;;;;;;7.94;100.00;95284.72;1022136;28;20026;-73
2023/03/23 02:13:48;;;;;;;5.70;4.10;;;;;;;7.96;100.00;95284.47;1021167;29;20030;-73
2023/03/23 02:14:19;;;;;;;6.68;3.60;;;;;;;8.00;100.00;95288.16;1018622;29;20074;-73
2023/03/23 02:14:50;;;;;;;8.00;3.97;;;;;;;8.02;100.00;95283.47;1013637;29;20024;-74
2023/03/23 02:15:22;;;;;;;6.43;4.32;;;;;;;8.04;100.00;95286.59;1023172;28;20051;-73
2023/03/23 02:16:01;;;;;;;4.25;3.40;;;;;;;8.03;100.00;95285.03;1025895;28;20018;-73
2023/03/23 02:16:40;;;;;;;6.63;3.65;;;;;;;8.03;100.00;95285.03;1022485;28;20357;-74
2023/03/23 02:17:19;;;;;;;6.43;3.88;;;;;;;8.03;100.00;95282.41;1025188;28;20258;-73
2023/03/23 02:18:06;;;;;;;5.10;3.60;;;;;;;8.04;100.00;95286.59;1030141;28;20309;-73
2023/03/23 02:18:53;;;;;;;6.97;3.72;;;;;;;8.05;100.00;95288.19;1030812;28;20257;-72
2023/03/23 02:19:50;;;;;;;5.85;3.80;;;;;;;8.02;100.00;95279.00;1022204;29;20358;-74
2023/03/23 02:21:03;;;;;;;6.47;3.78;;;;;;;8.06;100.00;95281.13;1013764;29;20268;-74
2023/03/23 02:21:36;;;;;;;5.30;3.40;;;;;;;8.05;100.00;95277.72;1020177;29;20719;-74
2023/03/23 02:22:27;;;;;;;5.57;3.97;;;;;;;8.03;100.00;95279.78;1017964;29;20264;-73
2023/03/23 02:23:06;;;;;;;6.22;3.85;;;;;;;8.03;100.00;95271.97;1022966;29;20270;-73
2023/03/23 02:23:52;;;;;;;5.13;3.78;;;;;;;7.98;100.00;95270.13;1029045;28;20030;-75
2023/03/23 02:24:45;;;;;;;7.43;3.70;;;;;;;7.98;100.00;95266.72;1023327;29;20275;-75
2023/03/23 02:26:02;;;;;;;6.97;3.38;;;;;;;7.99;100.00;95263.06;1019795;29;20259;-73
2023/03/23 02:26:37;;;;;;;5.05;3.78;;;;;;;7.90;100.00;95248.94;1017369;29;20653;-73
2023/03/23 02:27:11;;;;;;;4.85;3.60;;;;;;;7.96;100.00;95266.19;1034432;28;20281;-73
2023/03/23 02:27:41;;;;;;;6.75;4.32;;;;;;;7.94;100.00;95260.44;1027167;28;20270;-74
2023/03/23 02:28:11;;;;;;;7.15;3.70;;;;;;;7.95;100.00;95267.25;1027612;28;20349;-73
2023/03/23 02:29:13;;;;;;;4.90;3.75;;;;;;;7.91;100.00;95260.94;1028006;28;20018;-73
2023/03/23 02:29:50;;;;;;;6.15;3.83;;;;;;;7.91;100.00;95259.09;1019021;29;20039;-73
2023/03/23 02:30:40;;;;;;;5.85;4.03;;;;;;;7.91;100.00;95266.94;1024579;28;20274;-73
2023/03/23 02:31:29;;;;;;;7.20;4.20;;;;;;;7.91;100.00;95268.78;1022325;29;20752;-72
2023/03/23 02:32:12;;;;;;;6.25;3.63;;;;;;;7.85;100.00;95256.78;1025767;28;20365;-73
2023/03/23 02:32:49;;;;;;;6.75;4.10;;;;;;;7.91;100.00;95261.72;1027298;28;20724;-73
2023/03/23 02:33:30;;;;;;;5.95;3.92;;;;;;;7.91;100.00;95261.72;1031639;28;20281;-72
2023/03/23 02:34:02;;;;;;;5.32;3.63;;;;;;;7.89;100.00;95257.81;1027178;28;20821;-73
2023/03/23 02:34:41;;;;;;;7.38;4.03;;;;;;;7.92;100.00;95263.31;1019283;29;20051;-77